createdAt,value
2024-02-29T00:01:27.861Z,98808.88
2024-02-29T00:03:30.326Z,98812.97
2024-02-29T00:05:32.788Z,98829.13
2024-02-29T00:07:35.244Z,98837.91
2024-02-29T00:09:38.530Z,98856.88
2024-02-29T00:11:40.993Z,98874.06
2024-02-29T00:13:43.543Z,98879.91
2024-02-29T00:15:46.784Z,98868.81
2024-02-29T00:17:50.270Z,98905.78
2024-02-29T00:19:52.723Z,98911.72
2024-02-29T00:21:56.301Z,98923.50
2024-02-29T00:23:58.808Z,98943.59
2024-02-29T00:26:02.077Z,98954.72
2024-02-29T00:28:05.671Z,98976.63
2024-02-29T00:30:08.683Z,98966.03
2024-02-29T00:32:12.327Z,98971.97
2024-02-29T00:34:16.300Z,98977.16
2024-02-29T00:36:18.917Z,98995.25
2024-02-29T00:38:22.101Z,98999.19
2024-02-29T00:40:24.676Z,99011.69
2024-02-29T00:42:27.332Z,99035.72
2024-02-29T00:44:29.906Z,99037.94
2024-02-29T00:46:33.456Z,99053.22
2024-02-29T00:48:37.292Z,99078.91
2024-02-29T00:50:39.767Z,99084.22
2024-02-29T00:52:43.065Z,99091.75
2024-02-29T00:54:45.520Z,99097.53
2024-02-29T00:56:48.709Z,99104.19
2024-02-29T00:58:51.193Z,99105.03
2024-02-29T01:00:54.211Z,99107.25
2024-02-29T01:02:57.869Z,99120.50
2024-02-29T01:05:00.420Z,99120.13
2024-02-29T01:07:02.921Z,99144.63
2024-02-29T01:09:05.877Z,99163.91
2024-02-29T01:11:08.582Z,99159.94
2024-02-29T01:13:12.094Z,99188.03
2024-02-29T01:15:15.369Z,99194.41
2024-02-29T01:17:17.860Z,99185.88
2024-02-29T01:19:20.815Z,99219.06
2024-02-29T01:21:23.717Z,99222.91
2024-02-29T01:23:26.508Z,99237.97
2024-02-29T01:25:29.058Z,99247.59
2024-02-29T01:27:31.968Z,99275.06
2024-02-29T01:29:34.509Z,99276.38
2024-02-29T01:31:37.060Z,99280.84
2024-02-29T01:33:40.281Z,99298.66
2024-02-29T01:35:43.429Z,99296.97
2024-02-29T01:37:45.851Z,99306.97
2024-02-29T01:39:48.307Z,99315.00
2024-02-29T01:41:50.754Z,99344.84
2024-02-29T01:43:58.169Z,99386.81
2024-02-29T01:46:14.142Z,99427.84
2024-02-29T01:48:17.093Z,99442.81
2024-02-29T01:50:21.347Z,99470.09
2024-02-29T01:52:27.604Z,99470.94
2024-02-29T01:54:30.086Z,99500.28
2024-02-29T01:56:32.571Z,99501.34
2024-02-29T01:58:36.842Z,99529.28
2024-02-29T02:00:39.322Z,99535.75
2024-02-29T02:02:42.215Z,99552.13
2024-02-29T02:04:47.803Z,99552.84
2024-02-29T02:06:51.029Z,99569.91
2024-02-29T02:08:53.593Z,99580.91
2024-02-29T02:10:56.794Z,99573.69
2024-02-29T02:12:59.427Z,99605.19
2024-02-29T02:15:05.558Z,99596.00
2024-02-29T02:17:09.434Z,99611.16
2024-02-29T02:19:15.741Z,99606.13
2024-02-29T02:21:18.974Z,99621.16
2024-02-29T02:23:23.633Z,99649.66
2024-02-29T02:25:26.217Z,99641.16
2024-02-29T02:27:29.167Z,99651.66
2024-02-29T02:29:32.523Z,99676.75
2024-02-29T02:31:35.283Z,99676.81
2024-02-29T02:33:38.547Z,99683.00
2024-02-29T02:35:41.016Z,99707.22
2024-02-29T02:37:43.511Z,99720.22
2024-02-29T02:39:46.736Z,99750.59
2024-02-29T02:41:50.085Z,99767.84
2024-02-29T02:43:53.699Z,99763.69
2024-02-29T02:45:57.175Z,99769.94
2024-02-29T02:48:00.612Z,99799.34
2024-02-29T02:50:03.424Z,99816.69
2024-02-29T02:52:06.162Z,99836.50
2024-02-29T02:54:09.497Z,99837.47
2024-02-29T02:56:11.993Z,99846.09
2024-02-29T02:58:14.607Z,99869.31
2024-02-29T03:03:46.245Z,99893.47
2024-02-29T03:05:48.950Z,99915.81
2024-02-29T03:07:51.627Z,99940.72
2024-02-29T03:09:54.118Z,99937.28
2024-02-29T03:11:56.573Z,99940.66
2024-02-29T03:13:59.469Z,99970.63
2024-02-29T03:16:02.086Z,99983.47
2024-02-29T03:18:08.284Z,99995.47
2024-02-29T03:20:14.941Z,100001.41
2024-02-29T03:22:17.431Z,100011.69
2024-02-29T03:24:20.586Z,100022.78
2024-02-29T03:26:23.106Z,100035.53
2024-02-29T03:28:25.644Z,100037.13
2024-02-29T03:30:28.114Z,100053.38
2024-02-29T03:32:31.529Z,100079.13
2024-02-29T03:34:34.380Z,100068.75
2024-02-29T03:36:36.840Z,100097.03
2024-02-29T03:38:41.434Z,100100.34
2024-02-29T03:45:11.712Z,100143.69
2024-02-29T09:38:06.134Z,100897.22
2024-02-29T09:40:09.510Z,100890.72
2024-02-29T09:42:14.423Z,100904.69
2024-02-29T09:44:19.173Z,100910.91
2024-02-29T09:46:23.751Z,100898.22
2024-02-29T09:48:26.760Z,100902.59
2024-02-29T09:50:29.668Z,100920.69
2024-02-29T09:52:36.323Z,100924.13
2024-02-29T09:54:42.045Z,100923.41
2024-02-29T09:56:44.940Z,100931.97
2024-02-29T09:58:47.749Z,100930.25
2024-02-29T10:00:50.479Z,100944.03
2024-02-29T10:02:55.467Z,100941.69
2024-02-29T10:04:58.473Z,100941.56
2024-02-29T10:07:00.954Z,100942.63
2024-02-29T10:09:03.569Z,100948.44
2024-02-29T10:11:07.566Z,100951.44
2024-02-29T10:13:10.111Z,100947.22
2024-02-29T10:15:13.272Z,100951.75
2024-02-29T10:17:15.793Z,100950.16
2024-02-29T10:19:18.376Z,100952.09
2024-02-29T10:21:23.087Z,100965.94
2024-02-29T10:23:28.300Z,100960.72
2024-02-29T10:25:30.852Z,100969.31
2024-02-29T10:27:33.627Z,100969.41
2024-02-29T10:29:36.121Z,100972.81
2024-02-29T10:31:39.920Z,100984.94
2024-02-29T10:33:49.406Z,100990.09
2024-02-29T10:35:54.560Z,100996.66
2024-02-29T10:37:58.774Z,101003.59
2024-02-29T10:40:02.784Z,101002.09
2024-02-29T10:42:07.875Z,101014.88
2024-02-29T10:44:11.770Z,101008.88
2024-02-29T10:46:17.691Z,101022.63
2024-02-29T10:48:30.583Z,101013.84
2024-02-29T10:50:45.024Z,101026.59
2024-02-29T10:52:54.342Z,101030.75
2024-02-29T10:55:09.931Z,101032.69
2024-02-29T10:57:17.204Z,101039.53
2024-02-29T10:59:21.297Z,101042.09
2024-02-29T11:01:24.654Z,101033.59
2024-02-29T11:03:27.587Z,101049.16
2024-02-29T11:05:30.371Z,101037.97
2024-02-29T11:07:36.236Z,101048.19
2024-02-29T11:09:39.601Z,101050.75
2024-02-29T11:11:44.858Z,101049.88
2024-02-29T11:13:48.903Z,101053.34
2024-02-29T11:15:55.048Z,101060.16
2024-02-29T11:17:57.600Z,101051.38
2024-02-29T11:20:09.384Z,101059.09
2024-02-29T11:22:12.317Z,101060.06
2024-02-29T11:24:23.990Z,101073.50
2024-02-29T11:26:29.245Z,101071.75
2024-02-29T11:28:38.806Z,101082.03
2024-02-29T11:30:43.364Z,101075.13
2024-02-29T11:32:46.003Z,101082.69
2024-02-29T11:34:49.431Z,101084.50
2024-02-29T11:36:53.166Z,101087.06
2024-02-29T11:38:56.887Z,101092.19
2024-02-29T11:40:59.339Z,101084.50
2024-02-29T11:43:03.749Z,101090.41
2024-02-29T11:45:07.723Z,101099.84
2024-02-29T11:47:10.171Z,101095.59
2024-02-29T11:49:19.603Z,101104.91
2024-02-29T11:51:25.126Z,101107.47
2024-02-29T11:53:30.536Z,101120.16
2024-02-29T11:55:34.102Z,101129.34
2024-02-29T11:57:37.868Z,101124.25
2024-02-29T11:59:41.005Z,101132.06
2024-02-29T12:01:45.453Z,101122.72
2024-02-29T12:03:48.060Z,101136.38
2024-02-29T12:08:03.020Z,101133.25
2024-02-29T12:10:06.901Z,101140.16
2024-02-29T12:12:09.977Z,101148.84
2024-02-29T12:14:13.530Z,101150.59
2024-02-29T12:16:17.122Z,101161.78
2024-02-29T12:18:20.782Z,101160.09
2024-02-29T12:20:24.388Z,101168.78
2024-02-29T12:22:28.132Z,101165.28
2024-02-29T12:24:34.921Z,101183.38
2024-02-29T12:26:39.658Z,101184.78
2024-02-29T12:28:42.435Z,101194.84
2024-02-29T12:30:50.432Z,101187.09
2024-02-29T12:32:55.085Z,101184.84
2024-02-29T12:34:58.261Z,101175.44
2024-02-29T12:37:01.955Z,101178.22
2024-02-29T12:39:04.618Z,101179.13
2024-02-29T12:41:08.204Z,101199.59
2024-02-29T12:43:15.894Z,101221.56
2024-02-29T12:45:19.766Z,101227.84
2024-02-29T12:47:22.412Z,101224.28
2024-02-29T12:49:25.057Z,101242.59
2024-02-29T12:51:28.274Z,101251.00
2024-02-29T12:53:30.755Z,101248.44
2024-02-29T12:55:33.306Z,101250.63
2024-02-29T12:57:36.703Z,101255.94
2024-02-29T12:59:39.191Z,101242.16
2024-02-29T13:01:42.749Z,101257.91
2024-02-29T13:03:45.369Z,101260.41
2024-02-29T13:05:47.891Z,101267.31
2024-02-29T13:07:50.919Z,101278.56
2024-02-29T13:09:53.567Z,101294.78
2024-02-29T13:11:56.465Z,101293.03
2024-02-29T13:13:59.056Z,101300.66
2024-02-29T13:16:02.024Z,101297.66
2024-02-29T13:18:05.505Z,101297.06
2024-02-29T13:20:08.668Z,101299.56
2024-02-29T13:22:11.127Z,101310.94
2024-02-29T13:24:13.812Z,101305.59
2024-02-29T13:26:17.169Z,101307.41
2024-02-29T13:28:20.756Z,101313.47
2024-02-29T13:30:23.359Z,101319.53
2024-02-29T13:32:26.177Z,101315.34
2024-02-29T13:34:28.829Z,101305.81
2024-02-29T13:36:31.502Z,101305.81
2024-02-29T13:38:35.721Z,101316.16
2024-02-29T13:40:38.325Z,101314.63
2024-02-29T13:42:43.444Z,101317.47
2024-02-29T13:44:49.408Z,101327.84
2024-02-29T13:46:51.897Z,101318.56
2024-02-29T13:48:54.496Z,101328.91
2024-02-29T13:51:17.017Z,101327.03
2024-02-29T13:53:19.490Z,101316.06
2024-02-29T13:55:22.172Z,101334.25
2024-02-29T13:57:24.755Z,101323.13
2024-02-29T13:59:29.450Z,101329.22
2024-02-29T14:01:31.990Z,101326.94
2024-02-29T14:03:34.527Z,101316.69
2024-02-29T14:05:37.308Z,101320.16
2024-02-29T14:07:42.143Z,101328.69
2024-02-29T14:09:45.442Z,101322.66
2024-02-29T14:11:47.954Z,101333.00
2024-02-29T14:13:50.517Z,101335.75
2024-02-29T14:15:53.046Z,101345.34
2024-02-29T14:17:55.650Z,101348.81
2024-02-29T14:19:58.842Z,101364.22
2024-02-29T14:22:02.939Z,101353.28
2024-02-29T14:24:05.642Z,101360.13
2024-02-29T14:26:08.789Z,101347.31
2024-02-29T14:28:12.220Z,101354.31
2024-02-29T14:30:15.041Z,101365.31
2024-02-29T14:32:17.882Z,101369.00
2024-02-29T14:34:21.763Z,101367.66
2024-02-29T14:36:25.886Z,101357.41
2024-02-29T14:38:28.653Z,101362.78
2024-02-29T14:40:31.817Z,101363.81
2024-02-29T14:42:34.825Z,101373.38
2024-02-29T14:44:37.895Z,101377.81
2024-02-29T14:46:40.338Z,101375.44
2024-02-29T14:48:43.437Z,101368.75
2024-02-29T14:50:46.527Z,101376.59
2024-02-29T14:52:49.740Z,101376.78
2024-02-29T14:54:52.630Z,101388.00
2024-02-29T14:56:55.221Z,101381.31
2024-02-29T14:58:59.397Z,101389.09
2024-02-29T15:01:02.092Z,101385.06
2024-02-29T15:03:05.102Z,101379.91
2024-02-29T15:05:09.007Z,101381.78
2024-02-29T15:07:13.398Z,101390.50
2024-02-29T15:09:16.573Z,101392.34
2024-02-29T15:11:19.686Z,101394.09
2024-02-29T15:13:22.963Z,101384.72
2024-02-29T15:15:28.534Z,101396.13
2024-02-29T15:17:34.038Z,101396.13
2024-02-29T15:19:36.878Z,101404.88
2024-02-29T15:21:39.854Z,101405.91
2024-02-29T15:23:43.031Z,101395.81
2024-02-29T15:25:49.137Z,101410.50
2024-02-29T15:27:56.071Z,101402.94
2024-02-29T15:29:59.000Z,101406.50
2024-02-29T15:32:02.137Z,101392.09
2024-02-29T15:34:05.459Z,101412.00
2024-02-29T15:36:08.256Z,101413.13
2024-02-29T15:38:12.530Z,101422.72
2024-02-29T15:40:15.080Z,101427.38
2024-02-29T15:42:18.009Z,101426.63
2024-02-29T15:44:20.997Z,101429.28
2024-02-29T15:46:23.864Z,101430.25
2024-02-29T15:48:27.297Z,101437.91
2024-02-29T15:50:29.773Z,101433.47
2024-02-29T15:52:32.302Z,101439.66
2024-02-29T15:54:36.328Z,101451.06
2024-02-29T15:56:39.798Z,101434.84
2024-02-29T15:58:44.091Z,101445.41
2024-02-29T16:00:47.338Z,101446.34
2024-02-29T16:02:50.855Z,101437.75
2024-02-29T16:04:54.193Z,101450.78
2024-02-29T16:07:00.873Z,101432.72
2024-02-29T16:09:03.649Z,101444.09
2024-02-29T16:11:06.931Z,101437.34
2024-02-29T16:13:11.270Z,101444.25
2024-02-29T16:15:15.109Z,101447.00
2024-02-29T16:17:17.978Z,101459.88
2024-02-29T16:19:20.891Z,101453.13
2024-02-29T16:21:23.497Z,101455.75
2024-02-29T16:23:26.306Z,101455.66
2024-02-29T16:25:28.929Z,101458.31
2024-02-29T16:27:31.578Z,101464.47
2024-02-29T16:29:36.992Z,101464.47
2024-02-29T16:31:40.197Z,101466.16
2024-02-29T16:33:42.754Z,101485.00
2024-02-29T16:35:45.586Z,101467.16
2024-02-29T16:37:48.170Z,101476.84
2024-02-29T16:39:50.828Z,101465.56
2024-02-29T16:41:53.792Z,101482.78
2024-02-29T16:43:57.166Z,101491.41
2024-02-29T16:46:00.685Z,101484.63
2024-02-29T16:48:03.867Z,101477.13
2024-02-29T16:50:07.236Z,101497.13
2024-02-29T16:52:10.787Z,101487.75
2024-02-29T16:54:14.071Z,101485.56
2024-02-29T16:56:17.925Z,101474.28
2024-02-29T16:58:21.092Z,101478.75
2024-02-29T17:00:26.022Z,101478.53
2024-02-29T17:02:28.512Z,101476.19
2024-02-29T17:04:34.193Z,101465.97
2024-02-29T17:06:37.723Z,101474.53
2024-02-29T17:08:41.847Z,101464.41
2024-02-29T17:10:45.576Z,101472.31
2024-02-29T17:12:49.797Z,101456.06
2024-02-29T17:14:52.261Z,101457.94
2024-02-29T17:16:55.458Z,101455.22
2024-02-29T17:18:58.004Z,101464.00
2024-02-29T17:21:00.544Z,101460.53
2024-02-29T17:23:03.087Z,101454.63
2024-02-29T17:25:06.352Z,101465.00
2024-02-29T17:27:08.850Z,101455.47
2024-02-29T17:29:11.297Z,101450.44
2024-02-29T17:31:13.802Z,101467.84
2024-02-29T17:33:16.298Z,101456.47
2024-02-29T17:35:20.073Z,101450.69
2024-02-29T17:37:24.283Z,101454.09
2024-02-29T17:39:27.663Z,101456.66
2024-02-29T17:41:30.966Z,101468.00
2024-02-29T17:43:33.541Z,101450.72
2024-02-29T17:45:37.235Z,101454.75
2024-02-29T17:47:41.910Z,101468.44
2024-02-29T17:49:44.639Z,101463.13
2024-02-29T17:51:48.085Z,101459.69
2024-02-29T17:53:51.332Z,101454.50
2024-02-29T17:55:54.015Z,101454.41
2024-02-29T17:57:56.786Z,101443.16
2024-02-29T17:59:59.251Z,101451.84
2024-02-29T18:02:01.984Z,101461.41
2024-02-29T18:04:05.113Z,101461.47
2024-02-29T18:06:08.191Z,101465.78
2024-02-29T18:08:11.073Z,101458.88
2024-02-29T18:10:15.205Z,101464.94
2024-02-29T18:12:17.941Z,101456.16
2024-02-29T18:14:20.806Z,101463.09
2024-02-29T18:16:23.347Z,101454.44
2024-02-29T18:18:26.185Z,101461.53
2024-02-29T18:20:28.665Z,101465.91
2024-02-29T18:22:31.217Z,101459.75
2024-02-29T18:24:33.742Z,101469.38
2024-02-29T18:26:36.322Z,101466.75
2024-02-29T18:28:38.995Z,101471.03
2024-02-29T18:30:41.905Z,101469.22
2024-02-29T18:32:44.447Z,101455.53
2024-02-29T18:34:47.379Z,101459.91
2024-02-29T18:36:50.668Z,101464.34
2024-02-29T18:38:53.304Z,101479.19
2024-02-29T18:40:55.735Z,101467.19
2024-02-29T18:42:58.383Z,101462.81
2024-02-29T18:45:02.171Z,101468.09
2024-02-29T18:47:06.067Z,101472.41
2024-02-29T18:49:09.544Z,101468.06
2024-02-29T18:51:12.043Z,101473.31
2024-02-29T18:53:14.670Z,101478.38
2024-02-29T18:55:18.365Z,101469.91
2024-02-29T18:57:21.624Z,101473.41
2024-02-29T18:59:24.104Z,101471.78
2024-02-29T19:01:27.495Z,101471.75
2024-02-29T19:03:30.049Z,101479.63
2024-02-29T19:05:32.696Z,101471.97
2024-02-29T19:07:35.361Z,101469.34
2024-02-29T19:09:38.496Z,101479.88
2024-02-29T19:11:43.750Z,101477.31
2024-02-29T19:13:46.300Z,101473.06
2024-02-29T19:15:51.709Z,101471.47
2024-02-29T19:17:54.560Z,101476.66
2024-02-29T19:19:57.075Z,101478.38
2024-02-29T19:21:59.678Z,101480.25
2024-02-29T19:24:02.164Z,101479.41
2024-02-29T19:26:04.749Z,101468.13
2024-02-29T19:28:07.385Z,101480.25
2024-02-29T19:30:12.156Z,101478.53
2024-02-29T19:32:14.620Z,101485.47
2024-02-29T19:34:17.598Z,101483.59
2024-02-29T19:36:20.808Z,101484.47
2024-02-29T19:38:25.169Z,101491.44
2024-02-29T19:40:27.821Z,101490.63
2024-02-29T19:42:30.362Z,101482.00
2024-02-29T19:44:32.818Z,101506.13
2024-02-29T19:46:35.549Z,101494.06
2024-02-29T19:48:38.043Z,101502.69
2024-02-29T19:50:41.033Z,101501.13
2024-02-29T19:52:43.699Z,101499.38
2024-02-29T19:54:46.235Z,101505.53
2024-02-29T19:56:48.794Z,101509.88
2024-02-29T19:58:51.292Z,101504.75
2024-02-29T20:01:02.308Z,101503.88
2024-02-29T20:03:07.186Z,101501.13
2024-02-29T20:05:11.057Z,101502.00
2024-02-29T20:07:13.580Z,101515.78
2024-02-29T20:09:17.162Z,101518.47
2024-02-29T20:11:19.725Z,101504.66
2024-02-29T20:13:22.422Z,101514.28
2024-02-29T20:15:25.105Z,101521.28
2024-02-29T20:17:27.687Z,101512.69
2024-02-29T20:19:31.088Z,101518.78
2024-02-29T20:21:33.811Z,101533.56
2024-02-29T20:23:36.354Z,101545.59
2024-02-29T20:25:40.341Z,101536.16
2024-02-29T20:27:55.707Z,101532.75
2024-02-29T20:29:58.244Z,101534.50
2024-02-29T20:32:00.701Z,101544.69
2024-02-29T20:34:03.289Z,101548.06
2024-02-29T20:36:06.328Z,101550.59
2024-02-29T20:38:09.285Z,101562.72
2024-02-29T20:40:12.640Z,101554.84
2024-02-29T20:42:15.235Z,101550.56
2024-02-29T20:44:17.702Z,101551.41
2024-02-29T20:46:20.270Z,101541.03
2024-02-29T20:48:23.561Z,101544.63
2024-02-29T20:50:28.640Z,101566.22
2024-02-29T20:52:31.277Z,101567.91
2024-02-29T20:54:33.893Z,101577.44
2024-02-29T20:56:36.349Z,101581.78
2024-02-29T20:58:38.819Z,101580.09
2024-02-29T21:00:41.307Z,101573.16
2024-02-29T21:02:43.804Z,101582.78
2024-02-29T21:04:46.237Z,101579.34
2024-02-29T21:06:49.695Z,101583.69
2024-02-29T21:08:53.917Z,101584.41
2024-02-29T21:10:56.413Z,101581.03
2024-02-29T21:13:01.581Z,101578.44
2024-02-29T21:15:04.989Z,101591.31
2024-02-29T21:17:07.503Z,101591.25
2024-02-29T21:19:10.091Z,101586.78
2024-02-29T21:21:12.586Z,101573.69
2024-02-29T21:23:15.187Z,101595.16
2024-02-29T21:25:18.025Z,101587.22
2024-02-29T21:27:20.583Z,101594.00
2024-02-29T21:29:23.090Z,101601.78
2024-02-29T21:31:25.779Z,101625.13
2024-02-29T21:33:28.288Z,101607.09
2024-02-29T21:35:30.898Z,101608.69
2024-02-29T21:37:33.425Z,101624.31
2024-02-29T21:39:44.087Z,101627.66
2024-02-29T21:41:48.176Z,101629.28
2024-02-29T21:43:51.225Z,101628.31
2024-02-29T21:45:54.629Z,101622.25
2024-02-29T21:47:58.125Z,101626.19
2024-02-29T21:50:00.897Z,101619.38
2024-02-29T21:52:03.528Z,101628.09
2024-02-29T21:54:06.623Z,101632.38
2024-02-29T21:56:13.382Z,101631.38
2024-02-29T21:58:15.906Z,101633.94
2024-02-29T22:00:18.753Z,101631.97
2024-02-29T22:02:21.433Z,101644.09
2024-02-29T22:04:24.183Z,101648.47
2024-02-29T22:06:26.855Z,101645.91
2024-02-29T22:08:32.174Z,101637.25
2024-02-29T22:10:35.605Z,101646.72
2024-02-29T22:12:39.464Z,101647.50
2024-02-29T22:14:41.917Z,101646.72
2024-02-29T22:16:44.559Z,101648.44
2024-02-29T22:18:48.555Z,101657.00
2024-02-29T22:20:51.037Z,101671.47
2024-02-29T22:22:53.495Z,101670.63
2024-02-29T22:24:56.328Z,101663.63
2024-02-29T22:26:59.247Z,101672.97
2024-02-29T22:29:02.461Z,101689.28
2024-02-29T22:31:05.176Z,101681.41
2024-02-29T22:33:07.816Z,101692.41
2024-02-29T22:35:10.530Z,101687.09
2024-02-29T22:37:14.360Z,101690.59
2024-02-29T22:39:17.372Z,101702.63
2024-02-29T22:41:20.599Z,101701.53
2024-02-29T22:43:23.074Z,101703.28
2024-02-29T22:45:25.707Z,101705.84
2024-02-29T22:47:28.262Z,101715.03
2024-02-29T22:49:30.789Z,101716.91
2024-02-29T22:51:35.537Z,101725.38
2024-02-29T22:53:38.069Z,101721.78
2024-02-29T22:55:40.738Z,101728.50
2024-02-29T22:57:43.303Z,101745.72
2024-02-29T22:59:45.760Z,101738.69
2024-02-29T23:01:48.993Z,101740.22
2024-02-29T23:03:51.627Z,101735.84
2024-02-29T23:05:54.106Z,101742.72
2024-02-29T23:07:57.176Z,101746.91
2024-02-29T23:10:00.716Z,101748.59
2024-02-29T23:12:03.542Z,101752.72
2024-02-29T23:14:06.377Z,101758.00
2024-02-29T23:16:08.881Z,101760.34
2024-02-29T23:18:11.537Z,101753.41
2024-02-29T23:20:14.088Z,101761.22
2024-02-29T23:22:16.677Z,101779.25
2024-02-29T23:24:19.143Z,101759.13
2024-02-29T23:26:22.796Z,101780.81
2024-02-29T23:28:25.477Z,101785.16
2024-02-29T23:30:27.997Z,101791.97
2024-02-29T23:32:30.451Z,101790.22
2024-02-29T23:34:34.031Z,101790.94
2024-02-29T23:36:37.209Z,101789.88
2024-02-29T23:38:39.699Z,101802.78
2024-02-29T23:40:42.243Z,101806.31
2024-02-29T23:42:45.467Z,101798.56
2024-02-29T23:44:47.912Z,101821.69
2024-02-29T23:46:51.209Z,101814.91
2024-02-29T23:48:53.739Z,101822.56
2024-02-29T23:50:56.221Z,101825.06
2024-02-29T23:52:58.713Z,101823.41
2024-02-29T23:55:01.377Z,101830.22
2024-02-29T23:57:04.233Z,101841.44
2024-02-29T23:59:07.257Z,101838.81
